Time;durP1;ratioP1;P1;durP2;ratioP2;P2;SDS_P1;SDS_P2;PMS_P1;PMS_P2;Temp;Humidity;BMP_temperature;BMP_pressure;BME280_temperature;BME280_humidity;BME280_pressure;Samples;Min_cycle;Max_cycle;Signal;HPM_P1;HPM_P2
2023/10/11 00:00:58;;;;;;;8.77;5.13;;;8.50;99.90;;;;;;4194062;28;20090;-59
2023/10/11 00:02:59;;;;;;;9.70;5.13;;;8.50;99.90;;;;;;4194702;28;20086;-61
2023/10/11 00:05:03;;;;;;;8.73;5.23;;;8.50;99.90;;;;;;4193878;28;20037;-60
2023/10/11 00:07:04;;;;;;;7.93;4.97;;;8.60;99.90;;;;;;4195236;28;20449;-59
2023/10/11 00:09:12;;;;;;;10.43;4.43;;;8.60;99.90;;;;;;4193516;28;20045;-59
2023/10/11 00:11:19;;;;;;;9.17;5.13;;;8.60;99.90;;;;;;4194998;28;20116;-62
2023/10/11 00:13:25;;;;;;;7.07;4.77;;;8.60;99.90;;;;;;4193731;28;20098;-63
2023/10/11 00:15:28;;;;;;;7.00;4.03;;;8.60;99.90;;;;;;4194817;28;20090;-61
2023/10/11 00:17:30;;;;;;;7.33;4.10;;;8.60;99.90;;;;;;4193828;28;20492;-63
2023/10/11 00:19:33;;;;;;;8.57;4.83;;;8.50;99.90;;;;;;4195069;28;20106;-62
2023/10/11 00:21:41;;;;;;;7.47;4.30;;;8.50;99.90;;;;;;4193467;28;20032;-63
2023/10/11 00:23:45;;;;;;;7.87;4.50;;;8.60;99.90;;;;;;4195339;28;20322;-63
2023/10/11 00:25:49;;;;;;;7.97;4.37;;;8.50;99.90;;;;;;4193318;28;20539;-62
2023/10/11 00:27:58;;;;;;;6.23;4.37;;;8.50;99.90;;;;;;4195327;28;20040;-59
2023/10/11 00:29:59;;;;;;;8.23;4.53;;;8.60;99.90;;;;;;4193763;28;20033;-59
2023/10/11 00:32:00;;;;;;;9.17;5.77;;;8.50;99.90;;;;;;4193559;28;20062;-59
2023/10/11 00:34:03;;;;;;;8.23;5.10;;;8.40;99.90;;;;;;4192225;28;20090;-59
2023/10/11 00:36:05;;;;;;;10.50;5.70;;;8.30;99.90;;;;;;4194046;28;20691;-59
2023/10/11 00:38:07;;;;;;;8.27;5.47;;;8.20;99.90;;;;;;4193176;28;20032;-60
2023/10/11 00:40:08;;;;;;;10.20;4.90;;;8.10;99.90;;;;;;4192308;28;20035;-60
2023/10/11 00:42:10;;;;;;;9.47;5.17;;;8.10;99.90;;;;;;4194158;28;20040;-59
2023/10/11 00:44:11;;;;;;;12.40;6.10;;;8.00;99.90;;;;;;4193770;28;20037;-58
2023/10/11 00:46:14;;;;;;;8.40;4.63;;;8.00;99.90;;;;;;4194283;28;20029;-59
2023/10/11 00:48:19;;;;;;;7.10;4.80;;;8.00;99.90;;;;;;4192649;28;20457;-59
2023/10/11 00:50:21;;;;;;;10.47;5.13;;;8.00;99.90;;;;;;4194337;28;20169;-58
2023/10/11 00:52:22;;;;;;;7.17;4.77;;;8.00;99.90;;;;;;4193513;28;20013;-58
2023/10/11 00:54:27;;;;;;;10.10;5.20;;;8.00;99.90;;;;;;4194844;28;20056;-58
2023/10/11 00:56:34;;;;;;;8.17;4.67;;;8.00;99.90;;;;;;4193206;28;20122;-60
2023/10/11 00:58:38;;;;;;;8.17;4.73;;;8.00;99.90;;;;;;4194397;28;20055;-59
2023/10/11 01:00:41;;;;;;;9.63;5.27;;;8.00;99.90;;;;;;4193464;28;20040;-58
2023/10/11 01:02:45;;;;;;;11.27;5.90;;;8.00;99.90;;;;;;4193989;28;20068;-58
2023/10/11 01:04:46;;;;;;;10.60;5.63;;;7.90;99.90;;;;;;4191987;28;20044;-59
2023/10/11 01:06:48;;;;;;;11.13;6.00;;;7.90;99.90;;;;;;4194238;28;20473;-59
2023/10/11 01:08:49;;;;;;;9.50;5.57;;;7.90;99.90;;;;;;4193152;28;20036;-59
2023/10/11 01:10:51;;;;;;;9.27;5.70;;;7.90;99.90;;;;;;4194091;28;20028;-59
2023/10/11 01:12:52;;;;;;;12.87;7.47;;;7.80;99.90;;;;;;4192481;28;20456;-59
2023/10/11 01:14:59;;;;;;;16.77;6.80;;;7.80;99.90;;;;;;4193928;28;20094;-58
2023/10/11 01:17:00;;;;;;;14.13;6.63;;;7.70;99.90;;;;;;4193918;28;20041;-59
2023/10/11 01:19:07;;;;;;;14.83;7.17;;;7.70;99.90;;;;;;4193114;28;20028;-59
2023/10/11 01:21:10;;;;;;;15.37;8.00;;;7.70;99.90;;;;;;4193432;28;20040;-58
2023/10/11 01:23:11;;;;;;;15.60;7.83;;;7.70;99.90;;;;;;4192431;28;20029;-58
2023/10/11 01:25:12;;;;;;;15.47;7.80;;;7.70;99.90;;;;;;4194277;28;20033;-59
2023/10/11 01:27:14;;;;;;;11.90;7.93;;;7.60;99.90;;;;;;4192686;28;20025;-58
2023/10/11 01:29:15;;;;;;;15.83;7.43;;;7.60;99.90;;;;;;4194247;28;20086;-57
2023/10/11 01:31:16;;;;;;;13.67;7.73;;;7.70;99.90;;;;;;4192812;28;20024;-58
2023/10/11 01:33:18;;;;;;;13.33;7.27;;;7.60;99.90;;;;;;4193583;28;20044;-59
2023/10/11 01:35:20;;;;;;;12.93;7.33;;;7.60;99.90;;;;;;4191858;28;20102;-57
2023/10/11 01:37:22;;;;;;;15.77;8.63;;;7.60;99.90;;;;;;4194119;28;20106;-60
2023/10/11 01:39:23;;;;;;;14.13;8.43;;;7.60;99.90;;;;;;4192774;28;20024;-58
2023/10/11 01:41:28;;;;;;;15.10;7.97;;;7.50;99.90;;;;;;4192728;28;20485;-58
2023/10/11 01:43:30;;;;;;;14.90;7.87;;;7.40;99.90;;;;;;4192918;28;20036;-57
2023/10/11 01:45:32;;;;;;;12.70;7.50;;;7.30;99.90;;;;;;4193888;28;20146;-55
2023/10/11 01:47:34;;;;;;;12.87;8.20;;;7.30;99.90;;;;;;4192801;28;20074;-59
2023/10/11 01:49:39;;;;;;;13.60;8.07;;;7.30;99.90;;;;;;4192934;28;20481;-63
2023/10/11 01:51:46;;;;;;;16.97;8.17;;;7.30;99.90;;;;;;4192946;28;20376;-58
2023/10/11 01:53:48;;;;;;;12.87;7.97;;;7.20;99.90;;;;;;4193501;28;20032;-59
2023/10/11 01:55:49;;;;;;;13.60;7.20;;;7.20;99.90;;;;;;4193228;28;20086;-60
2023/10/11 01:57:50;;;;;;;17.30;8.73;;;7.20;99.90;;;;;;4193178;28;20592;-57
2023/10/11 01:59:52;;;;;;;18.70;9.33;;;7.20;99.90;;;;;;4193728;28;20049;-62
2023/10/11 02:02:02;;;;;;;18.87;9.30;;;7.20;99.90;;;;;;4192175;28;20044;-57
2023/10/11 02:04:04;;;;;;;22.95;10.73;;;7.20;99.90;;;;;;4193604;28;20098;-57
2023/10/11 02:06:06;;;;;;;25.07;8.63;;;7.20;99.90;;;;;;4192097;28;20485;-58
2023/10/11 02:08:11;;;;;;;21.80;9.07;;;7.20;99.90;;;;;;4192131;28;20036;-59
2023/10/11 02:10:13;;;;;;;20.60;8.83;;;7.20;99.90;;;;;;4192868;28;20041;-61
2023/10/11 02:12:17;;;;;;;25.13;9.63;;;7.20;99.90;;;;;;4193396;28;20032;-59
2023/10/11 02:14:22;;;;;;;19.37;10.17;;;7.20;99.90;;;;;;4192117;28;20044;-62
2023/10/11 02:16:32;;;;;;;13.83;9.30;;;7.10;99.90;;;;;;4193271;28;20036;-57
2023/10/11 02:18:33;;;;;;;17.93;9.60;;;7.00;99.90;;;;;;4192732;28;20153;-60
2023/10/11 02:20:46;;;;;;;16.23;9.53;;;7.00;99.90;;;;;;4193224;28;20822;-59
2023/10/11 02:22:59;;;;;;;17.07;9.80;;;7.00;99.90;;;;;;4192199;28;20033;-59
2023/10/11 02:25:01;;;;;;;18.30;9.50;;;6.90;99.90;;;;;;4193758;28;20450;-58
2023/10/11 02:27:06;;;;;;;20.17;9.27;;;6.90;99.90;;;;;;4192414;28;20130;-59
2023/10/11 02:29:15;;;;;;;18.83;9.87;;;6.90;99.90;;;;;;4193345;28;20040;-57
2023/10/11 02:31:25;;;;;;;15.00;9.63;;;6.90;99.90;;;;;;4181317;28;20024;-60
2023/10/11 02:33:30;;;;;;;14.32;7.88;;;6.90;99.90;;;;;;4192147;28;20052;-59
2023/10/11 02:35:34;;;;;;;14.37;9.10;;;6.90;99.90;;;;;;4182829;28;20465;-57
2023/10/11 02:37:36;;;;;;;18.40;9.57;;;6.90;99.90;;;;;;4193678;28;20024;-58
2023/10/11 02:39:43;;;;;;;14.63;9.53;;;6.90;99.90;;;;;;4192082;28;20021;-56
2023/10/11 02:41:46;;;;;;;15.37;9.07;;;6.90;99.90;;;;;;4192784;28;20082;-60
2023/10/11 02:43:50;;;;;;;17.63;9.10;;;7.00;99.90;;;;;;4191724;28;20054;-59
2023/10/11 02:45:54;;;;;;;17.47;8.97;;;7.00;99.90;;;;;;4193231;28;20575;-59
2023/10/11 02:48:09;;;;;;;13.00;8.47;;;7.00;99.90;;;;;;4195340;28;20078;-59
2023/10/11 02:50:10;;;;;;;16.63;9.63;;;7.10;99.90;;;;;;4196149;28;20082;-58
2023/10/11 02:52:13;;;;;;;17.17;9.63;;;7.00;99.90;;;;;;4194640;28;20044;-56
2023/10/11 02:54:14;;;;;;;16.80;9.33;;;7.10;99.90;;;;;;4196030;28;20056;-57
2023/10/11 02:56:15;;;;;;;17.07;8.30;;;7.00;99.90;;;;;;4195791;28;20613;-59
2023/10/11 02:58:21;;;;;;;15.93;8.07;;;6.90;99.90;;;;;;4194902;28;20074;-60
2023/10/11 03:00:22;;;;;;;15.30;7.97;;;6.90;99.90;;;;;;4194653;28;20481;-60
2023/10/11 03:02:29;;;;;;;17.27;9.80;;;6.90;99.90;;;;;;4195081;28;20374;-58
2023/10/11 03:04:41;;;;;;;17.77;8.70;;;6.90;99.90;;;;;;4195351;28;20114;-55
2023/10/11 03:06:49;;;;;;;16.77;9.13;;;6.90;99.90;;;;;;4194562;28;20102;-59
2023/10/11 03:08:53;;;;;;;16.97;8.60;;;6.90;99.90;;;;;;4194638;28;20040;-55
2023/10/11 03:10:54;;;;;;;17.90;9.43;;;6.90;99.90;;;;;;4194992;28;20025;-59
2023/10/11 03:12:55;;;;;;;15.07;8.23;;;6.80;99.90;;;;;;4196044;28;20447;-59
2023/10/11 03:14:56;;;;;;;13.97;8.80;;;6.80;99.90;;;;;;4194516;28;20033;-59
2023/10/11 03:17:05;;;;;;;14.47;8.50;;;6.90;99.90;;;;;;4195796;28;20029;-60
2023/10/11 03:19:06;;;;;;;16.70;8.80;;;6.80;99.90;;;;;;4194754;28;20040;-58
2023/10/11 03:21:33;;;;;;;18.80;8.73;;;6.80;99.90;;;;;;4196303;28;20036;-59
2023/10/11 03:23:43;;;;;;;19.00;9.30;;;6.80;99.90;;;;;;4193265;28;20045;-61
2023/10/11 03:25:49;;;;;;;16.70;8.98;;;6.80;99.90;;;;;;4195946;28;20032;-59
2023/10/11 03:27:51;;;;;;;16.00;9.17;;;6.80;99.90;;;;;;4194483;28;20387;-60
2023/10/11 03:29:53;;;;;;;15.70;9.20;;;6.90;99.90;;;;;;4195128;28;20070;-58
2023/10/11 03:31:54;;;;;;;19.23;9.07;;;6.90;99.90;;;;;;4193393;28;20044;-59
2023/10/11 03:33:56;;;;;;;18.00;9.53;;;6.80;99.90;;;;;;4195101;28;20093;-57
2023/10/11 03:35:57;;;;;;;14.63;8.47;;;6.90;99.90;;;;;;4194174;28;20055;-59
2023/10/11 03:37:58;;;;;;;17.37;9.10;;;6.90;99.90;;;;;;4193420;28;20035;-58
2023/10/11 03:40:00;;;;;;;20.73;9.30;;;6.90;99.90;;;;;;4193204;28;20048;-59
2023/10/11 03:42:14;;;;;;;15.60;9.77;;;6.90;99.90;;;;;;4195036;28;20099;-60
2023/10/11 03:44:20;;;;;;;16.53;9.70;;;6.90;99.90;;;;;;4193685;28;20044;-57
2023/10/11 03:46:28;;;;;;;20.20;9.63;;;6.90;99.90;;;;;;4196137;28;20480;-61
2023/10/11 03:48:34;;;;;;;19.27;9.27;;;6.80;99.90;;;;;;4194563;28;20048;-58
2023/10/11 03:50:37;;;;;;;16.77;9.27;;;6.80;99.90;;;;;;4191145;28;20033;-58
2023/10/11 03:52:40;;;;;;;19.13;9.50;;;6.80;99.90;;;;;;4193109;28;20391;-59
2023/10/11 03:54:42;;;;;;;17.03;8.90;;;6.80;99.90;;;;;;4194527;28;20068;-59
2023/10/11 03:56:52;;;;;;;17.67;9.33;;;6.80;99.90;;;;;;4194624;28;20040;-59
2023/10/11 03:58:53;;;;;;;16.37;9.30;;;6.90;99.90;;;;;;4193645;28;20376;-60
2023/10/11 04:01:00;;;;;;;16.50;9.30;;;6.90;99.90;;;;;;4193896;28;20485;-57
2023/10/11 04:03:05;;;;;;;16.80;9.83;;;6.90;99.90;;;;;;4193594;28;20073;-58
2023/10/11 04:05:06;;;;;;;17.43;8.87;;;6.90;99.90;;;;;;4194796;28;20836;-59
2023/10/11 04:07:12;;;;;;;15.40;8.40;;;6.90;99.90;;;;;;4193744;28;20040;-60
2023/10/11 04:09:31;;;;;;;18.17;9.13;;;6.80;99.90;;;;;;4193735;28;20074;-59
2023/10/11 04:11:50;;;;;;;20.67;9.93;;;6.90;99.90;;;;;;4192837;28;20392;-58
2023/10/11 04:13:53;;;;;;;14.25;8.95;;;6.90;99.90;;;;;;4194210;28;20522;-60
2023/10/11 04:15:59;;;;;;;17.03;8.97;;;6.90;99.90;;;;;;4193482;28;20403;-58
2023/10/11 04:18:20;;;;;;;18.40;9.33;;;6.90;99.90;;;;;;4194392;28;20431;-60
2023/10/11 04:20:29;;;;;;;13.57;8.70;;;6.90;99.90;;;;;;4193225;28;20417;-58
2023/10/11 04:22:32;;;;;;;16.75;9.20;;;6.90;99.90;;;;;;4194629;28;20055;-58
2023/10/11 04:24:36;;;;;;;19.33;9.33;;;7.00;99.90;;;;;;4193735;28;20037;-57
2023/10/11 04:26:38;;;;;;;21.30;9.47;;;7.00;99.90;;;;;;4194712;28;20362;-59
2023/10/11 04:28:41;;;;;;;17.40;9.40;;;6.90;99.90;;;;;;4193369;28;20028;-58
2023/10/11 04:30:44;;;;;;;21.90;9.43;;;7.00;99.90;;;;;;4194384;28;20040;-58
2023/10/11 04:32:48;;;;;;;17.13;8.40;;;7.00;99.90;;;;;;4193315;28;20053;-58
2023/10/11 04:34:55;;;;;;;16.87;8.67;;;7.00;99.90;;;;;;4193877;28;20048;-60
2023/10/11 04:36:56;;;;;;;19.60;9.37;;;7.00;99.90;;;;;;4193255;28;20052;-58
2023/10/11 04:39:15;;;;;;;13.47;7.50;;;7.00;99.90;;;;;;4193809;28;20074;-58
2023/10/11 04:41:19;;;;;;;17.87;8.27;;;7.00;99.90;;;;;;4193370;28;20121;-57
2023/10/11 04:43:20;;;;;;;12.90;8.20;;;7.00;99.90;;;;;;4194090;28;20101;-58
2023/10/11 04:45:29;;;;;;;17.73;8.50;;;7.00;99.90;;;;;;4191093;28;20114;-58
2023/10/11 04:47:50;;;;;;;16.17;8.53;;;7.00;99.90;;;;;;4193797;28;20154;-54
2023/10/11 04:49:54;;;;;;;15.73;8.43;;;7.00;99.90;;;;;;4192444;28;20045;-59
2023/10/11 04:51:56;;;;;;;16.30;8.87;;;7.00;99.90;;;;;;4194484;28;20074;-58
2023/10/11 04:53:58;;;;;;;13.83;8.57;;;7.10;99.90;;;;;;4193297;28;20514;-59
2023/10/11 04:56:01;;;;;;;17.63;9.23;;;7.10;99.90;;;;;;4194520;28;20428;-55
2023/10/11 04:58:07;;;;;;;18.20;9.57;;;7.10;99.90;;;;;;4193027;28;20138;-57
2023/10/11 05:00:10;;;;;;;16.80;9.13;;;7.10;99.90;;;;;;4193591;28;20062;-60
2023/10/11 05:02:18;;;;;;;13.70;8.97;;;7.00;99.90;;;;;;4193107;28;20021;-57
2023/10/11 05:04:33;;;;;;;17.27;8.73;;;7.00;99.90;;;;;;4194229;28;20082;-61
2023/10/11 05:06:40;;;;;;;16.23;9.73;;;7.00;99.90;;;;;;4176381;28;20408;-58
2023/10/11 05:08:51;;;;;;;17.87;11.17;;;7.00;99.90;;;;;;4176524;28;20155;-58
2023/10/11 05:10:52;;;;;;;15.98;9.45;;;7.00;99.90;;;;;;4174951;28;20041;-60
2023/10/11 05:13:11;;;;;;;17.40;9.37;;;7.10;99.90;;;;;;4176811;28;20126;-58
2023/10/11 05:15:15;;;;;;;19.13;8.97;;;7.10;99.90;;;;;;4176463;28;20094;-56
2023/10/11 05:17:23;;;;;;;23.50;9.93;;;7.00;99.90;;;;;;4176755;28;20427;-56
2023/10/11 05:19:26;;;;;;;16.97;8.87;;;7.00;99.90;;;;;;4176561;28;20021;-59
2023/10/11 05:21:28;;;;;;;18.27;8.93;;;7.10;99.90;;;;;;4176574;28;20037;-53
2023/10/11 05:23:52;;;;;;;22.40;9.07;;;7.10;99.90;;;;;;4176912;28;20036;-59
2023/10/11 05:25:58;;;;;;;21.53;9.37;;;7.10;99.90;;;;;;4176665;28;20037;-56
2023/10/11 05:32:32;;;;;;;15.87;8.73;;;7.30;99.90;;;;;;4176503;28;20238;-57
2023/10/11 05:34:49;;;;;;;17.43;9.40;;;7.30;99.90;;;;;;4176914;28;20465;-58
2023/10/11 05:50:54;;;;;;;15.87;9.73;;;7.40;99.90;;;;;;4176208;28;20374;-59
2023/10/11 05:52:55;;;;;;;16.27;8.83;;;7.50;99.90;;;;;;4177058;28;20025;-57
2023/10/11 05:54:57;;;;;;;19.40;8.40;;;7.50;99.90;;;;;;4175525;28;20045;-59
2023/10/11 05:57:03;;;;;;;15.83;8.70;;;7.60;99.90;;;;;;4177055;28;20049;-57
2023/10/11 05:59:09;;;;;;;19.10;9.03;;;7.60;99.90;;;;;;4175642;28;20484;-57
2023/10/11 06:01:13;;;;;;;19.60;8.53;;;7.60;99.90;;;;;;4176966;28;20067;-58
2023/10/11 06:03:15;;;;;;;19.37;8.20;;;7.70;99.90;;;;;;4176100;28;20041;-58
2023/10/11 06:05:17;;;;;;;14.70;8.23;;;7.70;99.90;;;;;;4176753;28;20072;-59
2023/10/11 06:07:21;;;;;;;11.50;8.37;;;7.70;99.90;;;;;;4175788;28;20495;-55
2023/10/11 06:09:26;;;;;;;16.13;8.40;;;7.70;99.90;;;;;;4176554;28;20025;-60
2023/10/11 06:11:36;;;;;;;15.53;7.80;;;7.70;99.90;;;;;;4175848;28;20021;-57
2023/10/11 06:13:37;;;;;;;23.58;8.43;;;7.70;99.90;;;;;;4176662;28;20099;-57
2023/10/11 06:15:40;;;;;;;23.27;8.10;;;7.80;99.90;;;;;;4175798;28;20452;-57
2023/10/11 06:17:42;;;;;;;18.80;8.40;;;7.80;99.90;;;;;;4176346;28;20048;-58
2023/10/11 06:19:53;;;;;;;12.40;6.73;;;7.90;99.90;;;;;;4176241;28;20468;-57
2023/10/11 06:21:56;;;;;;;13.87;7.70;;;7.90;99.90;;;;;;4177359;28;20110;-57
2023/10/11 06:23:58;;;;;;;13.23;7.00;;;8.00;99.90;;;;;;4179488;28;20079;-58
2023/10/11 06:25:59;;;;;;;12.53;7.57;;;8.00;99.90;;;;;;4178928;28;20041;-54
2023/10/11 06:30:09;;;;;;;16.10;8.37;;;8.00;99.90;;;;;;4179116;28;20032;-57
2023/10/11 06:32:11;;;;;;;20.00;10.90;;;8.10;99.90;;;;;;4179945;28;20444;-56
2023/10/11 06:34:17;;;;;;;16.27;9.17;;;8.10;99.90;;;;;;4178735;28;20114;-56
2023/10/11 06:36:18;;;;;;;13.23;7.97;;;8.10;99.90;;;;;;4179606;28;20511;-57
2023/10/11 06:38:21;;;;;;;13.37;7.10;;;8.10;99.90;;;;;;4178404;28;20444;-56
2023/10/11 06:42:42;;;;;;;12.13;7.00;;;8.20;99.90;;;;;;4178408;28;20410;-58
2023/10/11 06:44:48;;;;;;;13.67;6.90;;;8.30;99.90;;;;;;4179726;28;20319;-57
2023/10/11 06:46:50;;;;;;;13.67;7.27;;;8.30;99.90;;;;;;4178485;28;20075;-56
2023/10/11 06:48:55;;;;;;;11.33;6.77;;;8.30;99.90;;;;;;4179492;28;20528;-55
2023/10/11 06:50:56;;;;;;;16.93;7.63;;;8.30;99.90;;;;;;4178577;28;20044;-56
2023/10/11 06:52:57;;;;;;;14.47;7.63;;;8.40;99.90;;;;;;4179845;28;20083;-58
2023/10/11 06:57:09;;;;;;;13.77;7.43;;;8.50;99.90;;;;;;4179515;28;20110;-53
2023/10/11 06:59:14;;;;;;;12.30;7.47;;;8.50;99.90;;;;;;4178009;28;20029;-54
2023/10/11 07:01:15;;;;;;;15.90;7.47;;;8.60;99.90;;;;;;4177839;28;20095;-57
2023/10/11 07:05:26;;;;;;;12.07;7.35;;;8.60;99.90;;;;;;4179627;28;20037;-57
2023/10/11 07:07:32;;;;;;;15.43;7.70;;;8.60;99.90;;;;;;4178711;28;20404;-57
2023/10/11 07:09:39;;;;;;;12.33;7.40;;;8.70;99.90;;;;;;4178684;28;20110;-55
2023/10/11 07:12:18;;;;;;;17.33;8.43;;;8.60;99.90;;;;;;4178755;28;20088;-58
2023/10/11 07:14:16;;;;;;;13.43;7.93;;;8.60;99.90;;;;;;4178762;28;20438;-57
2023/10/11 07:16:27;;;;;;;18.27;8.23;;;8.70;99.90;;;;;;4177690;28;20040;-58
2023/10/11 07:18:33;;;;;;;;;;;8.70;99.90;;;;;;4179650;28;20091;-57
2023/10/11 07:20:47;;;;;;;17.00;7.53;;;8.70;99.90;;;;;;4178409;28;20327;-57
2023/10/11 07:22:49;;;;;;;15.47;7.57;;;8.70;99.90;;;;;;4178790;28;20106;-56
2023/10/11 07:24:55;;;;;;;15.73;7.80;;;8.70;99.90;;;;;;4178316;28;20112;-56
2023/10/11 07:27:12;;;;;;;10.60;6.50;;;8.80;99.90;;;;;;4178735;28;20048;-59
2023/10/11 07:29:13;;;;;;;10.60;6.53;;;8.80;99.90;;;;;;4178232;28;20372;-58
2023/10/11 07:31:16;;;;;;;13.47;6.90;;;8.80;99.90;;;;;;4178689;28;20044;-57
2023/10/11 07:33:18;;;;;;;11.77;6.87;;;8.90;99.90;;;;;;4178121;28;20017;-57
2023/10/11 07:35:27;;;;;;;8.27;6.00;;;8.90;99.90;;;;;;4178162;28;20462;-58
2023/10/11 07:37:28;;;;;;;11.50;6.23;;;9.00;99.90;;;;;;4178778;28;20091;-59
2023/10/11 07:39:33;;;;;;;8.40;6.00;;;9.00;99.90;;;;;;4176298;28;20464;-60
2023/10/11 07:41:34;;;;;;;10.80;5.50;;;9.00;99.90;;;;;;4178903;28;20032;-59
2023/10/11 07:43:35;;;;;;;11.80;6.27;;;9.10;99.90;;;;;;4178113;28;20041;-60
2023/10/11 07:45:38;;;;;;;10.40;6.47;;;9.10;99.90;;;;;;4178951;28;20090;-60
2023/10/11 07:47:45;;;;;;;8.80;6.00;;;9.20;99.90;;;;;;4177938;28;20041;-59
2023/10/11 07:49:49;;;;;;;12.67;7.00;;;9.20;99.90;;;;;;4179108;28;20078;-60
2023/10/11 07:51:58;;;;;;;15.03;7.00;;;9.20;99.90;;;;;;4177709;28;20098;-60
2023/10/11 07:54:06;;;;;;;11.33;6.20;;;9.30;99.90;;;;;;4178796;28;20099;-59
2023/10/11 07:56:15;;;;;;;11.93;6.20;;;9.40;99.90;;;;;;4177804;28;20045;-60
2023/10/11 07:58:26;;;;;;;11.23;6.10;;;9.40;99.90;;;;;;4178901;28;20029;-58
2023/10/11 08:00:30;;;;;;;12.00;6.10;;;9.60;99.90;;;;;;4177749;28;20055;-60
2023/10/11 08:02:41;;;;;;;11.77;6.00;;;9.70;99.90;;;;;;4178990;28;20040;-57
2023/10/11 08:04:47;;;;;;;10.00;5.50;;;9.70;99.90;;;;;;4178142;28;20037;-60
2023/10/11 08:06:59;;;;;;;11.03;6.20;;;9.90;99.90;;;;;;4178836;28;20071;-59
2023/10/11 08:09:00;;;;;;;9.00;5.70;;;9.90;99.90;;;;;;4177492;28;20072;-57
2023/10/11 08:11:06;;;;;;;13.37;6.13;;;10.00;99.90;;;;;;4178822;28;20090;-58
2023/10/11 08:13:14;;;;;;;11.33;5.67;;;10.00;99.90;;;;;;4177312;28;20436;-59
2023/10/11 08:15:21;;;;;;;10.93;6.07;;;10.00;99.90;;;;;;4178235;28;20053;-59
2023/10/11 08:17:27;;;;;;;9.50;5.57;;;10.30;99.90;;;;;;4177378;28;20048;-56
2023/10/11 08:19:28;;;;;;;10.03;5.63;;;10.50;99.90;;;;;;4178516;28;20033;-60
2023/10/11 08:21:30;;;;;;;10.80;6.17;;;10.80;99.90;;;;;;4177452;28;20084;-57
2023/10/11 08:23:31;;;;;;;14.10;6.07;;;11.00;99.90;;;;;;4178209;28;20106;-60
2023/10/11 08:25:39;;;;;;;12.50;6.07;;;11.20;99.90;;;;;;4177402;28;20034;-58
2023/10/11 08:27:41;;;;;;;19.17;7.53;;;11.40;99.90;;;;;;4177897;28;20420;-57
2023/10/11 08:29:45;;;;;;;11.53;5.60;;;11.60;99.90;;;;;;4177603;28;20075;-58
2023/10/11 08:31:48;;;;;;;10.70;5.90;;;11.70;99.90;;;;;;4176443;28;20041;-60
2023/10/11 08:33:50;;;;;;;15.87;5.90;;;11.70;99.90;;;;;;4178222;28;20016;-58
2023/10/11 08:35:53;;;;;;;9.40;6.27;;;11.80;99.90;;;;;;4177154;28;20094;-58
2023/10/11 08:38:02;;;;;;;10.53;6.23;;;11.90;99.90;;;;;;4178251;28;20533;-60
2023/10/11 08:40:20;;;;;;;12.03;6.67;;;12.00;99.90;;;;;;4176977;28;20037;-58
2023/10/11 08:42:22;;;;;;;12.00;6.20;;;12.10;99.90;;;;;;4177796;28;20151;-59
2023/10/11 08:44:27;;;;;;;12.13;6.30;;;12.30;99.90;;;;;;4176872;28;20086;-61
2023/10/11 08:46:32;;;;;;;11.77;5.60;;;12.50;99.90;;;;;;4177675;28;20443;-61
2023/10/11 08:48:38;;;;;;;12.30;6.07;;;12.50;99.90;;;;;;4177230;28;20075;-61
2023/10/11 08:50:44;;;;;;;19.40;6.60;;;12.50;99.90;;;;;;4178303;28;20107;-58
2023/10/11 08:52:51;;;;;;;11.15;5.80;;;12.60;99.90;;;;;;4177109;28;20049;-60
2023/10/11 08:54:52;;;;;;;9.53;5.80;;;12.90;99.90;;;;;;4177838;28;20029;-60
2023/10/11 08:56:57;;;;;;;9.27;5.60;;;13.00;99.90;;;;;;4175189;28;20107;-58
2023/10/11 08:59:02;;;;;;;10.73;5.53;;;12.90;99.90;;;;;;4177592;28;20041;-59
2023/10/11 09:01:03;;;;;;;10.53;6.23;;;12.90;99.90;;;;;;4176344;28;20033;-59
2023/10/11 09:03:40;;;;;;;8.33;5.33;;;12.90;99.90;;;;;;4178249;28;20483;-61
2023/10/11 09:05:42;;;;;;;8.57;5.60;;;13.00;99.90;;;;;;4176892;28;20575;-58
2023/10/11 09:07:46;;;;;;;16.27;5.93;;;13.00;99.90;;;;;;4178027;28;20071;-58
2023/10/11 09:09:50;;;;;;;8.60;6.03;;;13.30;99.90;;;;;;4176694;28;20041;-58
2023/10/11 09:11:54;;;;;;;10.70;6.60;;;13.30;99.90;;;;;;4177891;28;20055;-59
2023/10/11 09:14:26;;;;;;;11.87;5.53;;;13.40;99.90;;;;;;4176734;28;20091;-61
2023/10/11 09:16:34;;;;;;;10.77;5.13;;;13.40;99.90;;;;;;4177942;28;20434;-62
2023/10/11 09:18:35;;;;;;;12.23;5.30;;;13.50;99.90;;;;;;4176453;28;20029;-59
2023/10/11 09:20:40;;;;;;;14.60;6.03;;;13.50;99.90;;;;;;4177819;28;20036;-62
2023/10/11 09:22:47;;;;;;;10.23;5.00;;;13.60;99.90;;;;;;4176984;28;20037;-62
2023/10/11 09:25:08;;;;;;;10.63;4.87;;;13.70;99.90;;;;;;4177549;28;20037;-61
2023/10/11 09:27:18;;;;;;;;;;;13.80;99.90;;;;;;4177562;28;20390;-59
2023/10/11 09:29:24;;;;;;;8.97;4.93;;;13.90;99.90;;;;;;4177662;28;19966;-59
2023/10/11 09:31:27;;;;;;;12.33;5.77;;;13.90;99.90;;;;;;4176369;28;20033;-60
2023/10/11 09:33:38;;;;;;;8.73;4.83;;;13.90;99.90;;;;;;4177697;28;20029;-60
2023/10/11 09:35:39;;;;;;;10.73;5.20;;;14.20;99.90;;;;;;4176799;28;20057;-59
2023/10/11 09:37:40;;;;;;;10.63;5.60;;;14.20;99.90;;;;;;4177769;28;20041;-60
2023/10/11 09:39:42;;;;;;;9.20;5.07;;;14.30;99.90;;;;;;4176254;28;20041;-57
2023/10/11 09:41:52;;;;;;;10.77;5.27;;;14.40;99.90;;;;;;4177599;28;20045;-57
2023/10/11 09:43:57;;;;;;;8.18;5.25;;;14.50;99.90;;;;;;4176266;28;20075;-58
2023/10/11 09:45:58;;;;;;;7.60;5.63;;;14.40;99.90;;;;;;4177764;28;20029;-58
2023/10/11 09:47:59;;;;;;;10.30;4.67;;;14.50;99.90;;;;;;4176426;28;20033;-57
2023/10/11 09:50:13;;;;;;;9.50;5.60;;;14.60;99.90;;;;;;4177174;28;20025;-54
2023/10/11 09:52:23;;;;;;;9.80;5.43;;;14.80;99.90;;;;;;4176354;28;20013;-59
2023/10/11 09:54:27;;;;;;;9.97;5.43;;;15.00;99.90;;;;;;4177024;28;20508;-57
2023/10/11 09:56:54;;;;;;;6.10;4.63;;;15.10;99.90;;;;;;4177445;28;20102;-58
2023/10/11 09:59:19;;;;;;;10.18;4.97;;;15.00;99.90;;;;;;4180791;28;20558;-62
2023/10/11 10:01:27;;;;;;;7.50;4.90;;;15.10;99.90;;;;;;4179916;28;20464;-60
2023/10/11 10:03:28;;;;;;;11.10;5.55;;;15.30;99.90;;;;;;4181313;28;20048;-56
2023/10/11 10:06:18;;;;;;;13.48;7.25;;;15.30;99.90;;;;;;4179709;28;20083;-58
2023/10/11 10:08:19;;;;;;;8.00;5.60;;;15.20;99.90;;;;;;4180677;28;20029;-58
2023/10/11 10:10:26;;;;;;;9.32;5.43;;;15.20;99.90;;;;;;4179354;28;20107;-59
2023/10/11 10:12:34;;;;;;;7.80;5.55;;;15.30;99.90;;;;;;4180217;28;20108;-57
2023/10/11 10:14:36;;;;;;;7.35;5.13;;;15.40;99.90;;;;;;4179271;28;20558;-57
2023/10/11 10:17:13;;;;;;;10.95;5.55;;;15.50;99.90;;;;;;4179989;28;20388;-56
2023/10/11 10:19:23;;;;;;;9.70;5.53;;;15.50;99.90;;;;;;4179198;28;21098;-59
2023/10/11 10:21:24;;;;;;;12.02;6.55;;;15.50;99.90;;;;;;4180623;28;20045;-56
2023/10/11 10:23:29;;;;;;;18.85;8.85;;;15.60;99.90;;;;;;4179230;28;20079;-59
2023/10/11 10:25:30;;;;;;;9.30;6.00;;;15.70;99.90;;;;;;4179016;28;20037;-57
2023/10/11 10:27:34;;;;;;;19.73;7.63;;;15.80;99.90;;;;;;4179018;28;20071;-58
2023/10/11 10:29:55;;;;;;;13.45;6.75;;;15.80;99.90;;;;;;4180454;28;20382;-56
2023/10/11 10:32:04;;;;;;;10.43;4.07;;;15.90;99.90;;;;;;4179125;28;20028;-58
2023/10/11 10:34:13;;;;;;;8.38;5.45;;;15.80;99.90;;;;;;4180736;28;20028;-59
2023/10/11 10:36:20;;;;;;;8.00;4.88;;;15.80;99.90;;;;;;4179021;28;20114;-58
2023/10/11 10:38:22;;;;;;;7.88;4.35;;;16.00;99.90;;;;;;4179937;28;20041;-56
2023/10/11 10:40:25;;;;;;;7.75;3.95;;;16.00;99.90;;;;;;4178847;28;20106;-59
2023/10/11 10:42:26;;;;;;;6.95;4.38;;;16.00;99.90;;;;;;4180096;28;20021;-57
2023/10/11 10:44:29;;;;;;;12.85;4.70;;;16.10;99.90;;;;;;4179230;28;20048;-58
2023/10/11 10:46:32;;;;;;;6.78;4.85;;;16.20;99.90;;;;;;4179943;28;20366;-58
2023/10/11 10:48:43;;;;;;;6.13;4.13;;;16.30;99.90;;;;;;4179143;28;20054;-58
2023/10/11 10:50:52;;;;;;;5.75;3.65;;;16.30;99.90;;;;;;4179746;28;20055;-59
2023/10/11 10:52:54;;;;;;;6.05;3.85;;;16.30;99.90;;;;;;4178734;28;20033;-59
2023/10/11 10:55:01;;;;;;;9.20;4.38;;;16.30;99.90;;;;;;4179352;28;20099;-59
2023/10/11 10:57:03;;;;;;;5.72;4.00;;;16.50;99.90;;;;;;4179178;28;20045;-56
2023/10/11 10:59:07;;;;;;;4.60;3.10;;;16.60;99.90;;;;;;4179155;28;20028;-59
2023/10/11 11:01:08;;;;;;;8.63;3.78;;;16.60;99.90;;;;;;4179385;28;20037;-58
2023/10/11 11:03:23;;;;;;;8.13;3.67;;;16.70;99.90;;;;;;4178886;28;20025;-58
2023/10/11 11:05:24;;;;;;;7.47;3.83;;;16.60;99.90;;;;;;4179113;28;20036;-58
2023/10/11 11:07:26;;;;;;;6.68;3.53;;;16.60;99.90;;;;;;4178953;28;20107;-59
2023/10/11 11:09:28;;;;;;;5.55;3.78;;;16.60;99.90;;;;;;4179078;28;20072;-59
2023/10/11 11:11:34;;;;;;;6.07;3.17;;;16.60;99.90;;;;;;4178269;28;20377;-58
2023/10/11 11:13:39;;;;;;;9.68;3.38;;;16.60;99.90;;;;;;4179089;28;20045;-58
2023/10/11 11:15:44;;;;;;;9.02;4.20;;;16.80;99.90;;;;;;4178364;28;20476;-58
2023/10/11 11:17:50;;;;;;;3.53;3.20;;;16.90;99.90;;;;;;4179400;28;20029;-58
2023/10/11 11:20:14;;;;;;;6.10;3.47;;;16.90;99.90;;;;;;4178334;28;20083;-59
2023/10/11 11:22:15;;;;;;;6.30;3.53;;;16.90;99.90;;;;;;4179455;28;20036;-57